sensor_id;sensor_type;location;lat;lon;timestamp;P1;durP1;ratioP1;P2;durP2;ratioP2
37067;SDS011;22982;42.848;25.468;2022-10-16T00:02:22;13.60;;;10.90;;
37067;SDS011;22982;42.848;25.468;2022-10-16T00:07:24;17.23;;;11.15;;
37067;SDS011;22982;42.848;25.468;2022-10-16T00:12:27;17.75;;;11.88;;
37067;SDS011;22982;42.848;25.468;2022-10-16T00:17:30;17.98;;;11.23;;
37067;SDS011;22982;42.848;25.468;2022-10-16T00:22:33;15.27;;;11.45;;
37067;SDS011;22982;42.848;25.468;2022-10-16T00:27:35;15.80;;;11.75;;
37067;SDS011;22982;42.848;25.468;2022-10-16T00:32:37;15.75;;;11.52;;
37067;SDS011;22982;42.848;25.468;2022-10-16T00:37:40;16.45;;;10.82;;
37067;SDS011;22982;42.848;25.468;2022-10-16T00:42:42;17.88;;;12.05;;
37067;SDS011;22982;42.848;25.468;2022-10-16T00:47:45;20.25;;;12.52;;
37067;SDS011;22982;42.848;25.468;2022-10-16T00:52:50;16.63;;;11.48;;
37067;SDS011;22982;42.848;25.468;2022-10-16T00:57:54;19.60;;;12.18;;
37067;SDS011;22982;42.848;25.468;2022-10-16T01:02:58;16.23;;;11.57;;
37067;SDS011;22982;42.848;25.468;2022-10-16T01:08:08;14.63;;;11.05;;
37067;SDS011;22982;42.848;25.468;2022-10-16T01:13:24;14.85;;;8.63;;
37067;SDS011;22982;42.848;25.468;2022-10-16T01:18:39;17.33;;;11.48;;
37067;SDS011;22982;42.848;25.468;2022-10-16T01:24:03;17.23;;;11.82;;
37067;SDS011;22982;42.848;25.468;2022-10-16T01:29:26;17.40;;;11.80;;
37067;SDS011;22982;42.848;25.468;2022-10-16T01:34:37;20.17;;;13.10;;
37067;SDS011;22982;42.848;25.468;2022-10-16T01:39:55;15.45;;;11.07;;
37067;SDS011;22982;42.848;25.468;2022-10-16T01:45:02;16.27;;;11.40;;
37067;SDS011;22982;42.848;25.468;2022-10-16T01:50:08;16.27;;;12.18;;
37067;SDS011;22982;42.848;25.468;2022-10-16T01:55:12;15.48;;;11.50;;
37067;SDS011;22982;42.848;25.468;2022-10-16T02:00:19;19.02;;;13.13;;
37067;SDS011;22982;42.848;25.468;2022-10-16T02:05:45;16.52;;;12.13;;
37067;SDS011;22982;42.848;25.468;2022-10-16T02:10:51;19.40;;;13.02;;
37067;SDS011;22982;42.848;25.468;2022-10-16T02:15:53;21.73;;;13.60;;
37067;SDS011;22982;42.848;25.468;2022-10-16T02:20:59;16.13;;;12.77;;
37067;SDS011;22982;42.848;25.468;2022-10-16T02:26:09;18.38;;;13.25;;
37067;SDS011;22982;42.848;25.468;2022-10-16T02:31:18;25.23;;;12.90;;
37067;SDS011;22982;42.848;25.468;2022-10-16T02:36:28;17.95;;;12.52;;
37067;SDS011;22982;42.848;25.468;2022-10-16T02:41:31;16.90;;;11.70;;
37067;SDS011;22982;42.848;25.468;2022-10-16T02:46:34;16.10;;;11.70;;
37067;SDS011;22982;42.848;25.468;2022-10-16T02:51:37;16.58;;;12.38;;
37067;SDS011;22982;42.848;25.468;2022-10-16T02:56:39;22.75;;;13.60;;
37067;SDS011;22982;42.848;25.468;2022-10-16T03:01:41;15.63;;;12.10;;
37067;SDS011;22982;42.848;25.468;2022-10-16T03:06:44;19.88;;;13.48;;
37067;SDS011;22982;42.848;25.468;2022-10-16T03:11:46;19.20;;;12.30;;
37067;SDS011;22982;42.848;25.468;2022-10-16T03:16:48;17.45;;;12.38;;
37067;SDS011;22982;42.848;25.468;2022-10-16T03:21:51;17.52;;;11.75;;
37067;SDS011;22982;42.848;25.468;2022-10-16T03:26:53;15.13;;;12.30;;
37067;SDS011;22982;42.848;25.468;2022-10-16T03:31:56;20.48;;;13.27;;
37067;SDS011;22982;42.848;25.468;2022-10-16T03:37:00;17.23;;;12.68;;
37067;SDS011;22982;42.848;25.468;2022-10-16T03:42:03;18.10;;;12.90;;
37067;SDS011;22982;42.848;25.468;2022-10-16T03:47:08;17.98;;;12.93;;
37067;SDS011;22982;42.848;25.468;2022-10-16T03:52:11;20.88;;;12.43;;
37067;SDS011;22982;42.848;25.468;2022-10-16T03:57:14;17.83;;;13.55;;
37067;SDS011;22982;42.848;25.468;2022-10-16T04:02:16;20.65;;;13.75;;
37067;SDS011;22982;42.848;25.468;2022-10-16T04:07:19;18.52;;;12.88;;
37067;SDS011;22982;42.848;25.468;2022-10-16T04:12:21;17.75;;;13.70;;
37067;SDS011;22982;42.848;25.468;2022-10-16T04:17:23;18.45;;;13.25;;
37067;SDS011;22982;42.848;25.468;2022-10-16T04:22:26;20.35;;;14.38;;
37067;SDS011;22982;42.848;25.468;2022-10-16T04:27:28;20.08;;;12.02;;
37067;SDS011;22982;42.848;25.468;2022-10-16T04:32:32;17.77;;;12.93;;
37067;SDS011;22982;42.848;25.468;2022-10-16T04:37:35;20.80;;;14.38;;
37067;SDS011;22982;42.848;25.468;2022-10-16T04:42:37;18.27;;;13.13;;
37067;SDS011;22982;42.848;25.468;2022-10-16T04:47:39;17.25;;;12.05;;
37067;SDS011;22982;42.848;25.468;2022-10-16T04:52:42;15.82;;;12.80;;
37067;SDS011;22982;42.848;25.468;2022-10-16T04:57:44;45.08;;;23.67;;
37067;SDS011;22982;42.848;25.468;2022-10-16T05:02:47;18.67;;;13.55;;
37067;SDS011;22982;42.848;25.468;2022-10-16T05:07:49;20.83;;;13.52;;
37067;SDS011;22982;42.848;25.468;2022-10-16T05:12:51;19.08;;;12.65;;
37067;SDS011;22982;42.848;25.468;2022-10-16T05:17:54;17.55;;;14.13;;
37067;SDS011;22982;42.848;25.468;2022-10-16T05:22:57;22.55;;;13.98;;
37067;SDS011;22982;42.848;25.468;2022-10-16T05:28:00;19.30;;;13.43;;
37067;SDS011;22982;42.848;25.468;2022-10-16T05:33:02;17.50;;;12.68;;
37067;SDS011;22982;42.848;25.468;2022-10-16T05:38:22;21.45;;;12.35;;
37067;SDS011;22982;42.848;25.468;2022-10-16T05:43:35;13.70;;;11.23;;
37067;SDS011;22982;42.848;25.468;2022-10-16T05:48:40;18.15;;;10.75;;
37067;SDS011;22982;42.848;25.468;2022-10-16T05:53:52;13.65;;;11.05;;
37067;SDS011;22982;42.848;25.468;2022-10-16T05:58:55;18.08;;;10.82;;
37067;SDS011;22982;42.848;25.468;2022-10-16T06:04:15;15.68;;;12.60;;
37067;SDS011;22982;42.848;25.468;2022-10-16T06:09:22;13.50;;;10.20;;
37067;SDS011;22982;42.848;25.468;2022-10-16T06:14:25;15.07;;;9.88;;
37067;SDS011;22982;42.848;25.468;2022-10-16T06:24:58;10.90;;;8.80;;
37067;SDS011;22982;42.848;25.468;2022-10-16T06:30:16;8.68;;;6.15;;
37067;SDS011;22982;42.848;25.468;2022-10-16T06:41:03;4.85;;;3.70;;
37067;SDS011;22982;42.848;25.468;2022-10-16T06:46:07;4.32;;;3.58;;
37067;SDS011;22982;42.848;25.468;2022-10-16T06:51:13;5.15;;;3.95;;
37067;SDS011;22982;42.848;25.468;2022-10-16T06:56:20;7.53;;;4.53;;
37067;SDS011;22982;42.848;25.468;2022-10-16T07:01:25;5.78;;;3.85;;
37067;SDS011;22982;42.848;25.468;2022-10-16T07:06:30;5.57;;;3.33;;
37067;SDS011;22982;42.848;25.468;2022-10-16T07:11:34;5.13;;;3.50;;
37067;SDS011;22982;42.848;25.468;2022-10-16T07:16:46;5.53;;;3.15;;
37067;SDS011;22982;42.848;25.468;2022-10-16T07:22:22;5.80;;;4.13;;
37067;SDS011;22982;42.848;25.468;2022-10-16T07:27:26;5.93;;;4.28;;
37067;SDS011;22982;42.848;25.468;2022-10-16T07:32:38;8.48;;;5.22;;
37067;SDS011;22982;42.848;25.468;2022-10-16T07:37:43;8.82;;;4.50;;
37067;SDS011;22982;42.848;25.468;2022-10-16T07:42:46;10.95;;;4.80;;
37067;SDS011;22982;42.848;25.468;2022-10-16T07:47:49;6.35;;;4.72;;
37067;SDS011;22982;42.848;25.468;2022-10-16T07:52:51;8.27;;;4.68;;
37067;SDS011;22982;42.848;25.468;2022-10-16T07:57:54;10.23;;;6.47;;
37067;SDS011;22982;42.848;25.468;2022-10-16T08:02:57;8.98;;;6.95;;
37067;SDS011;22982;42.848;25.468;2022-10-16T08:08:02;10.73;;;6.45;;
37067;SDS011;22982;42.848;25.468;2022-10-16T08:13:06;10.95;;;7.28;;
37067;SDS011;22982;42.848;25.468;2022-10-16T08:18:08;9.18;;;7.93;;
37067;SDS011;22982;42.848;25.468;2022-10-16T08:23:12;13.07;;;8.73;;
37067;SDS011;22982;42.848;25.468;2022-10-16T08:28:18;14.00;;;11.48;;
37067;SDS011;22982;42.848;25.468;2022-10-16T08:33:21;14.02;;;10.13;;
37067;SDS011;22982;42.848;25.468;2022-10-16T08:38:26;15.98;;;11.05;;
37067;SDS011;22982;42.848;25.468;2022-10-16T08:43:32;18.63;;;12.20;;
37067;SDS011;22982;42.848;25.468;2022-10-16T08:54:02;20.23;;;12.50;;
37067;SDS011;22982;42.848;25.468;2022-10-16T08:59:09;15.38;;;12.02;;
37067;SDS011;22982;42.848;25.468;2022-10-16T09:04:45;14.30;;;9.18;;
37067;SDS011;22982;42.848;25.468;2022-10-16T09:10:15;16.83;;;7.55;;
37067;SDS011;22982;42.848;25.468;2022-10-16T09:26:16;6.32;;;4.60;;
37067;SDS011;22982;42.848;25.468;2022-10-16T09:31:24;7.53;;;4.78;;
37067;SDS011;22982;42.848;25.468;2022-10-16T09:36:26;9.00;;;4.30;;
37067;SDS011;22982;42.848;25.468;2022-10-16T09:41:30;5.95;;;4.20;;
37067;SDS011;22982;42.848;25.468;2022-10-16T09:46:36;8.13;;;4.47;;
37067;SDS011;22982;42.848;25.468;2022-10-16T09:51:41;5.70;;;4.00;;
37067;SDS011;22982;42.848;25.468;2022-10-16T09:56:44;5.65;;;3.95;;
37067;SDS011;22982;42.848;25.468;2022-10-16T10:01:58;11.27;;;6.15;;
37067;SDS011;22982;42.848;25.468;2022-10-16T10:07:05;11.50;;;6.50;;
37067;SDS011;22982;42.848;25.468;2022-10-16T10:17:27;11.48;;;4.88;;
37067;SDS011;22982;42.848;25.468;2022-10-16T10:22:43;7.30;;;3.63;;
37067;SDS011;22982;42.848;25.468;2022-10-16T10:33:21;9.88;;;7.05;;
37067;SDS011;22982;42.848;25.468;2022-10-16T10:38:42;6.00;;;4.80;;
37067;SDS011;22982;42.848;25.468;2022-10-16T10:55:14;6.57;;;4.07;;
37067;SDS011;22982;42.848;25.468;2022-10-16T11:00:42;10.55;;;3.72;;
37067;SDS011;22982;42.848;25.468;2022-10-16T11:06:20;6.97;;;4.13;;
37067;SDS011;22982;42.848;25.468;2022-10-16T11:11:41;4.85;;;3.72;;
37067;SDS011;22982;42.848;25.468;2022-10-16T11:27:39;36.72;;;23.73;;
37067;SDS011;22982;42.848;25.468;2022-10-16T11:37:54;8.18;;;3.88;;
37067;SDS011;22982;42.848;25.468;2022-10-16T11:43:22;7.82;;;4.72;;
37067;SDS011;22982;42.848;25.468;2022-10-16T12:04:48;15.18;;;8.48;;
37067;SDS011;22982;42.848;25.468;2022-10-16T12:10:10;5.80;;;3.55;;
37067;SDS011;22982;42.848;25.468;2022-10-16T12:15:28;17.27;;;10.52;;
37067;SDS011;22982;42.848;25.468;2022-10-16T12:20:58;6.47;;;4.88;;
37067;SDS011;22982;42.848;25.468;2022-10-16T12:26:06;6.03;;;4.78;;
37067;SDS011;22982;42.848;25.468;2022-10-16T12:31:09;13.48;;;6.88;;
37067;SDS011;22982;42.848;25.468;2022-10-16T12:36:15;14.68;;;8.32;;
37067;SDS011;22982;42.848;25.468;2022-10-16T12:41:32;23.50;;;16.98;;
37067;SDS011;22982;42.848;25.468;2022-10-16T12:46:38;10.82;;;8.43;;
37067;SDS011;22982;42.848;25.468;2022-10-16T12:51:42;18.00;;;10.50;;
37067;SDS011;22982;42.848;25.468;2022-10-16T13:02:01;16.77;;;5.68;;
37067;SDS011;22982;42.848;25.468;2022-10-16T13:13:02;5.15;;;3.45;;
37067;SDS011;22982;42.848;25.468;2022-10-16T13:23:36;9.20;;;5.43;;
37067;SDS011;22982;42.848;25.468;2022-10-16T13:28:40;5.45;;;3.70;;
37067;SDS011;22982;42.848;25.468;2022-10-16T13:33:49;9.57;;;4.28;;
37067;SDS011;22982;42.848;25.468;2022-10-16T13:39:00;6.47;;;4.60;;
37067;SDS011;22982;42.848;25.468;2022-10-16T13:44:22;23.45;;;6.45;;
37067;SDS011;22982;42.848;25.468;2022-10-16T13:49:24;9.30;;;4.90;;
37067;SDS011;22982;42.848;25.468;2022-10-16T13:54:27;5.60;;;3.50;;
37067;SDS011;22982;42.848;25.468;2022-10-16T13:59:33;6.20;;;3.85;;
37067;SDS011;22982;42.848;25.468;2022-10-16T14:04:39;5.75;;;4.10;;
37067;SDS011;22982;42.848;25.468;2022-10-16T14:09:41;17.73;;;13.45;;
37067;SDS011;22982;42.848;25.468;2022-10-16T14:14:44;8.50;;;5.40;;
37067;SDS011;22982;42.848;25.468;2022-10-16T14:19:50;10.05;;;6.47;;
37067;SDS011;22982;42.848;25.468;2022-10-16T14:25:02;9.23;;;6.53;;
37067;SDS011;22982;42.848;25.468;2022-10-16T14:30:35;10.27;;;5.40;;
37067;SDS011;22982;42.848;25.468;2022-10-16T14:35:39;10.63;;;8.43;;
37067;SDS011;22982;42.848;25.468;2022-10-16T14:40:45;12.18;;;8.43;;
37067;SDS011;22982;42.848;25.468;2022-10-16T14:45:51;11.00;;;8.52;;
37067;SDS011;22982;42.848;25.468;2022-10-16T14:50:56;11.70;;;7.45;;
37067;SDS011;22982;42.848;25.468;2022-10-16T14:55:58;22.05;;;10.27;;
37067;SDS011;22982;42.848;25.468;2022-10-16T15:01:09;14.63;;;9.02;;
37067;SDS011;22982;42.848;25.468;2022-10-16T15:06:14;13.10;;;9.90;;
37067;SDS011;22982;42.848;25.468;2022-10-16T15:11:18;19.02;;;12.70;;
37067;SDS011;22982;42.848;25.468;2022-10-16T15:16:27;22.88;;;13.90;;
37067;SDS011;22982;42.848;25.468;2022-10-16T15:21:30;48.25;;;27.08;;
37067;SDS011;22982;42.848;25.468;2022-10-16T15:26:34;124.97;;;70.72;;
37067;SDS011;22982;42.848;25.468;2022-10-16T15:31:36;74.57;;;36.10;;
37067;SDS011;22982;42.848;25.468;2022-10-16T15:36:39;71.22;;;38.80;;
37067;SDS011;22982;42.848;25.468;2022-10-16T15:41:42;98.82;;;59.97;;
37067;SDS011;22982;42.848;25.468;2022-10-16T15:46:45;104.55;;;66.30;;
37067;SDS011;22982;42.848;25.468;2022-10-16T15:51:48;174.57;;;115.10;;
37067;SDS011;22982;42.848;25.468;2022-10-16T15:56:51;139.15;;;82.72;;
37067;SDS011;22982;42.848;25.468;2022-10-16T16:01:54;89.70;;;53.83;;
37067;SDS011;22982;42.848;25.468;2022-10-16T16:06:57;43.88;;;30.55;;
37067;SDS011;22982;42.848;25.468;2022-10-16T16:12:00;53.70;;;33.88;;
37067;SDS011;22982;42.848;25.468;2022-10-16T16:17:02;49.22;;;34.72;;
37067;SDS011;22982;42.848;25.468;2022-10-16T16:22:05;40.50;;;30.13;;
37067;SDS011;22982;42.848;25.468;2022-10-16T16:27:14;32.97;;;23.45;;
37067;SDS011;22982;42.848;25.468;2022-10-16T16:32:16;19.92;;;12.52;;
37067;SDS011;22982;42.848;25.468;2022-10-16T16:37:34;23.30;;;14.32;;
37067;SDS011;22982;42.848;25.468;2022-10-16T16:42:37;23.50;;;14.88;;
37067;SDS011;22982;42.848;25.468;2022-10-16T16:47:39;21.35;;;15.23;;
37067;SDS011;22982;42.848;25.468;2022-10-16T16:52:41;23.40;;;16.13;;
37067;SDS011;22982;42.848;25.468;2022-10-16T16:57:44;18.05;;;14.32;;
37067;SDS011;22982;42.848;25.468;2022-10-16T17:02:49;27.52;;;18.38;;
37067;SDS011;22982;42.848;25.468;2022-10-16T17:07:52;27.48;;;17.95;;
37067;SDS011;22982;42.848;25.468;2022-10-16T17:12:54;23.58;;;17.58;;
37067;SDS011;22982;42.848;25.468;2022-10-16T17:17:57;23.65;;;17.42;;
37067;SDS011;22982;42.848;25.468;2022-10-16T17:22:59;21.10;;;15.63;;
37067;SDS011;22982;42.848;25.468;2022-10-16T17:28:01;29.25;;;19.30;;
37067;SDS011;22982;42.848;25.468;2022-10-16T17:33:04;42.00;;;32.90;;
37067;SDS011;22982;42.848;25.468;2022-10-16T17:38:09;35.13;;;23.35;;
37067;SDS011;22982;42.848;25.468;2022-10-16T17:43:42;24.98;;;17.08;;
37067;SDS011;22982;42.848;25.468;2022-10-16T17:49:05;29.15;;;19.27;;
37067;SDS011;22982;42.848;25.468;2022-10-16T17:59:57;30.80;;;17.00;;
37067;SDS011;22982;42.848;25.468;2022-10-16T18:10:45;21.83;;;14.38;;
37067;SDS011;22982;42.848;25.468;2022-10-16T18:16:13;22.60;;;15.27;;
37067;SDS011;22982;42.848;25.468;2022-10-16T18:22:02;24.40;;;15.25;;
37067;SDS011;22982;42.848;25.468;2022-10-16T18:27:04;22.30;;;15.50;;
37067;SDS011;22982;42.848;25.468;2022-10-16T18:32:07;37.88;;;23.60;;
37067;SDS011;22982;42.848;25.468;2022-10-16T18:37:09;42.45;;;23.05;;
37067;SDS011;22982;42.848;25.468;2022-10-16T18:42:26;93.82;;;44.13;;
37067;SDS011;22982;42.848;25.468;2022-10-16T18:47:34;33.90;;;21.27;;
37067;SDS011;22982;42.848;25.468;2022-10-16T18:53:03;24.75;;;14.65;;
37067;SDS011;22982;42.848;25.468;2022-10-16T18:58:10;62.15;;;29.55;;
37067;SDS011;22982;42.848;25.468;2022-10-16T19:03:23;17.15;;;12.95;;
37067;SDS011;22982;42.848;25.468;2022-10-16T19:14:06;20.05;;;13.25;;
37067;SDS011;22982;42.848;25.468;2022-10-16T19:19:23;31.90;;;19.15;;
37067;SDS011;22982;42.848;25.468;2022-10-16T19:24:40;18.13;;;12.07;;
37067;SDS011;22982;42.848;25.468;2022-10-16T19:30:11;89.70;;;69.05;;
37067;SDS011;22982;42.848;25.468;2022-10-16T19:35:39;15.98;;;10.93;;
37067;SDS011;22982;42.848;25.468;2022-10-16T19:40:42;15.70;;;11.75;;
37067;SDS011;22982;42.848;25.468;2022-10-16T19:45:44;16.63;;;12.55;;
37067;SDS011;22982;42.848;25.468;2022-10-16T19:50:47;17.13;;;12.88;;
37067;SDS011;22982;42.848;25.468;2022-10-16T19:55:49;28.75;;;17.90;;
37067;SDS011;22982;42.848;25.468;2022-10-16T20:00:52;15.25;;;11.68;;
37067;SDS011;22982;42.848;25.468;2022-10-16T20:05:55;16.63;;;11.90;;
37067;SDS011;22982;42.848;25.468;2022-10-16T20:11:00;19.77;;;11.88;;
37067;SDS011;22982;42.848;25.468;2022-10-16T20:16:51;15.37;;;10.97;;
37067;SDS011;22982;42.848;25.468;2022-10-16T20:22:51;16.35;;;11.65;;
37067;SDS011;22982;42.848;25.468;2022-10-16T20:32:59;14.80;;;10.27;;
37067;SDS011;22982;42.848;25.468;2022-10-16T20:38:03;18.13;;;12.48;;
37067;SDS011;22982;42.848;25.468;2022-10-16T20:43:06;18.73;;;12.45;;
37067;SDS011;22982;42.848;25.468;2022-10-16T20:48:22;17.13;;;11.98;;
37067;SDS011;22982;42.848;25.468;2022-10-16T20:53:42;17.40;;;11.60;;
37067;SDS011;22982;42.848;25.468;2022-10-16T20:58:52;16.00;;;11.65;;
37067;SDS011;22982;42.848;25.468;2022-10-16T21:03:56;15.75;;;11.02;;
37067;SDS011;22982;42.848;25.468;2022-10-16T21:09:00;19.42;;;12.30;;
37067;SDS011;22982;42.848;25.468;2022-10-16T21:14:07;18.10;;;11.32;;
37067;SDS011;22982;42.848;25.468;2022-10-16T21:19:17;15.07;;;10.52;;
37067;SDS011;22982;42.848;25.468;2022-10-16T21:24:44;19.73;;;12.27;;
37067;SDS011;22982;42.848;25.468;2022-10-16T21:29:51;18.20;;;11.75;;
37067;SDS011;22982;42.848;25.468;2022-10-16T21:34:56;16.20;;;11.00;;
37067;SDS011;22982;42.848;25.468;2022-10-16T21:39:58;17.65;;;10.65;;
37067;SDS011;22982;42.848;25.468;2022-10-16T21:50:46;19.55;;;10.93;;
37067;SDS011;22982;42.848;25.468;2022-10-16T21:55:54;13.32;;;9.82;;
37067;SDS011;22982;42.848;25.468;2022-10-16T22:06:48;15.73;;;10.10;;
37067;SDS011;22982;42.848;25.468;2022-10-16T22:12:01;15.40;;;10.85;;
37067;SDS011;22982;42.848;25.468;2022-10-16T22:24:07;13.27;;;9.43;;
37067;SDS011;22982;42.848;25.468;2022-10-16T22:29:50;14.30;;;9.52;;
37067;SDS011;22982;42.848;25.468;2022-10-16T22:34:53;13.35;;;8.18;;
37067;SDS011;22982;42.848;25.468;2022-10-16T22:39:59;14.23;;;9.52;;
37067;SDS011;22982;42.848;25.468;2022-10-16T22:45:04;15.50;;;9.98;;
37067;SDS011;22982;42.848;25.468;2022-10-16T22:50:18;15.80;;;9.05;;
37067;SDS011;22982;42.848;25.468;2022-10-16T22:55:48;11.10;;;8.55;;
37067;SDS011;22982;42.848;25.468;2022-10-16T23:00:59;13.73;;;8.97;;
37067;SDS011;22982;42.848;25.468;2022-10-16T23:06:04;14.38;;;8.85;;
37067;SDS011;22982;42.848;25.468;2022-10-16T23:11:11;14.15;;;8.80;;
37067;SDS011;22982;42.848;25.468;2022-10-16T23:16:28;11.50;;;8.82;;
37067;SDS011;22982;42.848;25.468;2022-10-16T23:21:45;14.95;;;8.95;;
37067;SDS011;22982;42.848;25.468;2022-10-16T23:26:48;13.93;;;8.57;;
37067;SDS011;22982;42.848;25.468;2022-10-16T23:31:52;12.27;;;8.43;;
37067;SDS011;22982;42.848;25.468;2022-10-16T23:36:57;12.45;;;8.02;;
37067;SDS011;22982;42.848;25.468;2022-10-16T23:42:00;11.48;;;8.18;;
37067;SDS011;22982;42.848;25.468;2022-10-16T23:47:05;12.18;;;8.13;;
37067;SDS011;22982;42.848;25.468;2022-10-16T23:52:08;12.75;;;8.07;;
37067;SDS011;22982;42.848;25.468;2022-10-16T23:57:11;12.48;;;8.38;;
